Main page
METAR-TAF:

METAR-TAF

Airports :

RAF Wittering

Wittering, England

latitude: 52-37N, longitude: 000-28W, elevation: 84 m

Current weather observation

The report was made 32 minutes ago, at 11:50 UTC
Wind 6 kt from the West
Temperature 22°C
Humidity 57%
Pressure 1019 hPa
Visibility 10 km or more

METAR: EGXT 231150Z AUTO 26006KT 9999 BKN031/// 22/13 Q1019

Time: 13:22 (12:22 UTC)


TAF: missing

Weather observations and forecasts of more than 4000 airports (METAR and TAF reports).

The available stations are represented by yellow and red dots on the map.

Hover mouse over dot to see the name of the station.

Then click to see weather observations and forecasts.

To change the map : click on the green buttons with a black cross to zoom in, on the green button with a dash to zoom out, or on the green arrows for adjacent maps.


METAR-TAF: